createdAt,value
2019-03-20T00:01:09.793Z,4.60
2019-03-20T00:02:17.179Z,4.60
2019-03-20T00:03:23.945Z,4.60
2019-03-20T00:04:31.464Z,4.60
2019-03-20T00:05:38.480Z,4.60
2019-03-20T00:06:45.349Z,4.60
2019-03-20T00:07:52.468Z,4.60
2019-03-20T00:08:59.243Z,4.60
2019-03-20T00:10:07.173Z,4.60
2019-03-20T00:11:13.926Z,4.60
2019-03-20T00:12:20.710Z,4.60
2019-03-20T00:13:27.485Z,4.60
2019-03-20T00:14:34.367Z,4.50
2019-03-20T00:15:41.073Z,4.50
2019-03-20T00:16:47.805Z,4.50
2019-03-20T00:17:55.193Z,4.40
2019-03-20T00:19:02.021Z,4.40
2019-03-20T00:20:10.300Z,4.40
2019-03-20T00:21:17.456Z,4.30
2019-03-20T00:22:24.203Z,4.20
2019-03-20T00:23:31.115Z,4.20
2019-03-20T00:24:37.904Z,4.20
2019-03-20T00:25:44.768Z,4.10
2019-03-20T00:26:51.833Z,4.10
2019-03-20T00:27:58.602Z,4.00
2019-03-20T00:29:05.660Z,4.10
2019-03-20T00:30:14.263Z,4.00
2019-03-20T00:31:21.168Z,4.00
2019-03-20T00:32:28.033Z,4.00
2019-03-20T00:33:35.608Z,4.00
2019-03-20T00:34:42.359Z,4.00
2019-03-20T00:35:49.093Z,4.00
2019-03-20T00:36:56.311Z,3.90
2019-03-20T00:38:03.471Z,3.90
2019-03-20T00:39:10.689Z,3.90
2019-03-20T00:40:17.442Z,3.90
2019-03-20T00:41:24.178Z,3.90
2019-03-20T00:42:30.985Z,3.80
2019-03-20T00:43:37.717Z,3.90
2019-03-20T00:44:45.642Z,3.80
2019-03-20T00:45:52.377Z,3.80
2019-03-20T00:46:59.793Z,3.90
2019-03-20T00:48:06.885Z,3.90
2019-03-20T00:49:14.094Z,3.80
2019-03-20T00:50:20.824Z,3.80
2019-03-20T00:51:28.212Z,3.80
2019-03-20T00:52:34.984Z,3.80
2019-03-20T00:53:42.100Z,3.80
2019-03-20T00:54:48.869Z,3.80
2019-03-20T00:55:56.241Z,3.80
2019-03-20T00:57:02.989Z,3.80
2019-03-20T00:58:09.784Z,3.90
2019-03-20T00:59:16.487Z,3.90
2019-03-20T01:00:24.311Z,3.90
2019-03-20T01:01:31.858Z,3.90
2019-03-20T01:02:38.606Z,3.90
2019-03-20T01:03:45.664Z,3.90
2019-03-20T01:04:52.733Z,3.90
2019-03-20T01:05:59.781Z,3.90
2019-03-20T01:07:06.917Z,3.90
2019-03-20T01:08:13.690Z,3.90
2019-03-20T01:09:20.789Z,3.90
2019-03-20T01:10:27.622Z,3.90
2019-03-20T01:11:34.346Z,3.90
2019-03-20T01:12:41.139Z,4.00
2019-03-20T01:13:49.274Z,4.00
2019-03-20T01:14:56.677Z,4.00
2019-03-20T01:16:04.154Z,4.00
2019-03-20T01:17:11.819Z,4.00
2019-03-20T01:18:18.764Z,4.10
2019-03-20T01:19:25.783Z,4.10
2019-03-20T01:20:32.565Z,4.10
2019-03-20T01:21:39.259Z,4.10
2019-03-20T01:22:46.537Z,4.10
2019-03-20T01:23:53.577Z,4.10
2019-03-20T01:25:00.369Z,4.10
2019-03-20T01:26:07.112Z,4.10
2019-03-20T01:27:14.821Z,4.00
2019-03-20T01:28:22.576Z,4.00
2019-03-20T01:29:29.412Z,4.00
2019-03-20T01:30:39.082Z,4.10
2019-03-20T01:31:45.808Z,4.00
2019-03-20T01:32:52.532Z,4.00
2019-03-20T01:33:59.666Z,4.00
2019-03-20T01:35:07.151Z,4.00
2019-03-20T01:36:13.877Z,4.00
2019-03-20T01:37:20.659Z,4.00
2019-03-20T01:38:27.464Z,4.00
2019-03-20T01:39:34.191Z,4.00
2019-03-20T01:40:41.285Z,4.00
2019-03-20T01:41:48.005Z,4.10
2019-03-20T01:42:55.251Z,4.10
2019-03-20T01:44:02.294Z,4.10
2019-03-20T01:45:10.672Z,4.10
2019-03-20T01:46:17.758Z,4.10
2019-03-20T01:47:24.817Z,4.10
2019-03-20T01:48:31.611Z,4.10
2019-03-20T01:49:38.370Z,4.00
2019-03-20T01:50:45.143Z,4.10
2019-03-20T01:51:52.165Z,4.00
2019-03-20T01:52:59.314Z,4.00
2019-03-20T01:54:06.104Z,4.10
2019-03-20T01:55:13.054Z,4.10
2019-03-20T01:56:20.172Z,4.00
2019-03-20T01:57:26.979Z,4.10
2019-03-20T01:58:34.250Z,4.00
2019-03-20T01:59:40.980Z,4.00
2019-03-20T02:00:48.076Z,3.90
2019-03-20T02:01:54.838Z,3.90
2019-03-20T02:03:02.219Z,3.90
2019-03-20T02:04:08.956Z,3.90
2019-03-20T02:05:16.181Z,3.90
2019-03-20T02:06:22.884Z,3.90
2019-03-20T02:07:29.931Z,3.90
2019-03-20T02:08:37.033Z,3.80
2019-03-20T02:09:43.814Z,3.80
2019-03-20T02:10:50.900Z,3.80
2019-03-20T02:11:58.357Z,3.80
2019-03-20T02:13:05.529Z,3.80
2019-03-20T02:14:12.265Z,3.80
2019-03-20T02:15:19.064Z,3.80
2019-03-20T02:16:25.837Z,3.90
2019-03-20T02:17:32.628Z,3.80
2019-03-20T02:18:39.718Z,3.90
2019-03-20T02:19:46.429Z,3.90
2019-03-20T02:20:53.636Z,3.90
2019-03-20T02:22:00.491Z,3.90
2019-03-20T02:23:07.206Z,3.90
2019-03-20T02:24:14.156Z,3.90
2019-03-20T02:25:20.917Z,3.90
2019-03-20T02:26:28.005Z,3.90
2019-03-20T02:27:34.775Z,3.90
2019-03-20T02:28:41.576Z,3.80
2019-03-20T02:29:49.028Z,3.80
2019-03-20T02:30:56.123Z,3.70
2019-03-20T02:32:03.312Z,3.70
2019-03-20T02:33:10.448Z,3.70
2019-03-20T02:34:17.583Z,3.70
2019-03-20T02:35:24.733Z,3.60
2019-03-20T02:36:31.533Z,3.70
2019-03-20T02:37:38.602Z,3.70
2019-03-20T02:38:45.661Z,3.60
2019-03-20T02:39:52.469Z,3.60
2019-03-20T02:40:59.194Z,3.60
2019-03-20T02:42:06.136Z,3.60
2019-03-20T02:43:12.929Z,3.60
2019-03-20T02:44:20.077Z,3.60
2019-03-20T02:45:26.825Z,3.50
2019-03-20T02:46:33.976Z,3.60
2019-03-20T02:47:40.890Z,3.60
2019-03-20T02:48:47.776Z,3.50
2019-03-20T02:49:54.513Z,3.60
2019-03-20T02:51:01.334Z,3.50
2019-03-20T02:52:08.077Z,3.50
2019-03-20T02:53:14.859Z,3.50
2019-03-20T02:54:21.951Z,3.50
2019-03-20T02:55:28.697Z,3.50
2019-03-20T02:56:35.651Z,3.50
2019-03-20T02:57:42.833Z,3.50
2019-03-20T02:58:49.625Z,3.50
2019-03-20T02:59:56.367Z,3.60
2019-03-20T03:01:03.076Z,3.60
2019-03-20T03:02:14.215Z,3.60
2019-03-20T03:03:21.273Z,3.60
2019-03-20T03:04:28.360Z,3.60
2019-03-20T03:05:35.140Z,3.60
2019-03-20T03:06:42.234Z,3.60
2019-03-20T03:07:49.138Z,3.60
2019-03-20T03:08:55.880Z,3.60
2019-03-20T03:10:03.101Z,3.60
2019-03-20T03:11:09.892Z,3.60
2019-03-20T03:12:17.047Z,3.60
2019-03-20T03:13:23.832Z,3.60
2019-03-20T03:14:30.572Z,3.60
2019-03-20T03:15:37.737Z,3.60
2019-03-20T03:16:44.465Z,3.60
2019-03-20T03:17:51.182Z,3.60
2019-03-20T03:18:58.212Z,3.50
2019-03-20T03:20:06.043Z,3.60
2019-03-20T03:21:13.093Z,3.60
2019-03-20T03:22:19.899Z,3.50
2019-03-20T03:23:26.999Z,3.60
2019-03-20T03:24:33.832Z,3.60
2019-03-20T03:25:40.623Z,3.60
2019-03-20T03:26:47.365Z,3.60
2019-03-20T03:27:54.459Z,3.60
2019-03-20T03:29:01.203Z,3.70
2019-03-20T03:30:08.987Z,3.80
2019-03-20T03:31:15.939Z,3.70
2019-03-20T03:32:22.700Z,3.80
2019-03-20T03:33:29.415Z,3.70
2019-03-20T03:34:36.160Z,3.80
2019-03-20T03:35:43.261Z,3.80
2019-03-20T03:36:50.647Z,3.80
2019-03-20T03:37:57.774Z,3.80
2019-03-20T03:39:06.581Z,3.80
2019-03-20T03:40:13.766Z,3.90
2019-03-20T03:41:20.592Z,3.80
2019-03-20T03:42:28.071Z,3.90
2019-03-20T03:43:35.136Z,3.90
2019-03-20T03:44:41.882Z,3.80
2019-03-20T03:45:48.599Z,3.80
2019-03-20T03:46:55.572Z,3.80
2019-03-20T03:48:02.320Z,3.80
2019-03-20T03:49:09.163Z,3.70
2019-03-20T03:50:15.914Z,3.70
2019-03-20T03:51:22.667Z,3.70
2019-03-20T03:52:29.520Z,3.70
2019-03-20T03:53:36.595Z,3.70
2019-03-20T03:54:43.596Z,3.70
2019-03-20T03:55:50.801Z,3.60
2019-03-20T03:56:57.664Z,3.70
2019-03-20T03:58:04.904Z,3.60
2019-03-20T03:59:12.056Z,3.60
2019-03-20T04:00:19.119Z,3.60
2019-03-20T04:01:25.882Z,3.60
2019-03-20T04:02:32.989Z,3.60
2019-03-20T04:03:40.605Z,3.70
2019-03-20T04:04:47.804Z,3.70
2019-03-20T04:05:54.598Z,3.70
2019-03-20T04:07:01.444Z,3.70
2019-03-20T04:08:08.261Z,3.70
2019-03-20T04:09:15.336Z,3.70
2019-03-20T04:10:22.078Z,3.70
2019-03-20T04:11:28.854Z,3.70
2019-03-20T04:12:35.617Z,3.80
2019-03-20T04:13:42.675Z,3.80
2019-03-20T04:14:49.457Z,3.80
2019-03-20T04:15:56.202Z,3.80
2019-03-20T04:17:02.932Z,3.80
2019-03-20T04:18:10.369Z,3.80
2019-03-20T04:19:17.591Z,3.80
2019-03-20T04:20:24.302Z,3.80
2019-03-20T04:21:31.099Z,3.80
2019-03-20T04:22:38.276Z,3.80
2019-03-20T04:23:45.541Z,3.70
2019-03-20T04:24:52.341Z,3.70
2019-03-20T04:25:59.046Z,3.70
2019-03-20T04:27:05.793Z,3.70
2019-03-20T04:28:12.872Z,3.70
2019-03-20T04:29:19.671Z,3.70
2019-03-20T04:30:26.420Z,3.70
2019-03-20T04:31:33.203Z,3.70
2019-03-20T04:32:40.369Z,3.70
2019-03-20T04:33:47.308Z,3.70
2019-03-20T04:34:54.024Z,3.70
2019-03-20T04:36:00.772Z,3.70
2019-03-20T04:37:07.532Z,3.70
2019-03-20T04:38:14.371Z,3.70
2019-03-20T04:39:21.992Z,3.70
2019-03-20T04:40:29.341Z,3.70
2019-03-20T04:41:36.469Z,3.70
2019-03-20T04:42:43.296Z,3.70
2019-03-20T04:43:51.658Z,3.70
2019-03-20T04:44:59.154Z,3.70
2019-03-20T04:46:06.214Z,3.70
2019-03-20T04:47:13.370Z,3.70
2019-03-20T04:48:20.474Z,3.70
2019-03-20T04:49:27.884Z,3.70
2019-03-20T04:50:34.860Z,3.70
2019-03-20T04:51:41.666Z,3.70
2019-03-20T04:52:48.426Z,3.80
2019-03-20T04:53:55.182Z,3.80
2019-03-20T04:55:02.006Z,3.80
2019-03-20T04:56:09.096Z,3.80
2019-03-20T04:57:16.201Z,3.90
2019-03-20T04:58:22.969Z,3.90
2019-03-20T04:59:29.732Z,3.90
2019-03-20T05:00:36.921Z,3.90
2019-03-20T05:01:44.003Z,3.90
2019-03-20T05:02:51.180Z,4.00
2019-03-20T05:03:58.093Z,4.00
2019-03-20T05:05:05.090Z,4.00
2019-03-20T05:06:11.864Z,4.00
2019-03-20T05:07:19.004Z,4.00
2019-03-20T05:08:26.166Z,4.00
2019-03-20T05:09:33.134Z,4.10
2019-03-20T05:10:40.277Z,4.10
2019-03-20T05:11:47.401Z,4.10
2019-03-20T05:12:54.122Z,4.10
2019-03-20T05:14:01.221Z,4.10
2019-03-20T05:15:09.035Z,4.10
2019-03-20T05:16:15.815Z,4.20
2019-03-20T05:17:22.708Z,4.20
2019-03-20T05:18:29.856Z,4.20
2019-03-20T05:19:37.104Z,4.20
2019-03-20T05:20:44.836Z,4.30
2019-03-20T05:21:54.394Z,4.30
2019-03-20T05:23:01.158Z,4.30
2019-03-20T05:24:07.910Z,4.30
2019-03-20T05:25:14.741Z,4.30
2019-03-20T05:26:21.566Z,4.30
2019-03-20T05:27:28.575Z,4.30
2019-03-20T05:28:35.695Z,4.30
2019-03-20T05:29:42.402Z,4.40
2019-03-20T05:30:49.399Z,4.40
2019-03-20T05:31:56.151Z,4.40
2019-03-20T05:33:02.967Z,4.40
2019-03-20T05:34:10.472Z,4.40
2019-03-20T05:35:17.777Z,4.40
2019-03-20T05:36:24.754Z,4.40
2019-03-20T05:37:31.835Z,4.50
2019-03-20T05:38:39.027Z,4.50
2019-03-20T05:39:46.104Z,4.60
2019-03-20T05:40:53.256Z,4.60
2019-03-20T05:42:00.164Z,4.60
2019-03-20T05:43:06.951Z,4.70
2019-03-20T05:44:13.674Z,4.70
2019-03-20T05:45:20.617Z,4.70
2019-03-20T05:46:27.386Z,4.80
2019-03-20T05:47:34.507Z,4.80
2019-03-20T05:48:41.245Z,4.80
2019-03-20T05:49:48.316Z,4.80
2019-03-20T05:50:55.090Z,4.90
2019-03-20T05:52:01.879Z,4.90
2019-03-20T05:53:09.156Z,4.90
2019-03-20T05:54:15.834Z,4.90
2019-03-20T05:55:22.549Z,4.90
2019-03-20T05:56:29.337Z,4.90
2019-03-20T05:57:36.048Z,5.00
2019-03-20T05:58:42.904Z,5.00
2019-03-20T05:59:49.630Z,5.00
2019-03-20T06:00:56.418Z,5.00
2019-03-20T06:02:03.165Z,5.00
2019-03-20T06:03:10.048Z,5.00
2019-03-20T06:04:16.939Z,5.10
2019-03-20T06:05:23.690Z,5.10
2019-03-20T06:06:30.647Z,5.10
2019-03-20T06:07:37.404Z,5.10
2019-03-20T06:08:44.180Z,5.10
2019-03-20T06:09:50.940Z,5.10
2019-03-20T06:10:57.760Z,5.10
2019-03-20T06:12:04.477Z,5.10
2019-03-20T06:13:11.713Z,5.10
2019-03-20T06:14:19.137Z,5.10
2019-03-20T06:15:25.902Z,5.10
2019-03-20T06:16:32.622Z,5.20
2019-03-20T06:17:39.449Z,5.20
2019-03-20T06:18:46.564Z,5.20
2019-03-20T06:19:53.325Z,5.10
2019-03-20T06:21:00.428Z,5.20
2019-03-20T06:22:07.258Z,5.20
2019-03-20T06:23:14.368Z,5.20
2019-03-20T06:24:21.164Z,5.20
2019-03-20T06:25:28.309Z,5.30
2019-03-20T06:26:35.479Z,5.30
2019-03-20T06:27:42.988Z,5.30
2019-03-20T06:28:49.757Z,5.30
2019-03-20T06:29:56.946Z,5.30
2019-03-20T06:31:03.660Z,5.30
2019-03-20T06:32:10.358Z,5.30
2019-03-20T06:33:17.158Z,5.40
2019-03-20T06:34:23.996Z,5.40
2019-03-20T06:35:30.758Z,5.40
2019-03-20T06:36:37.696Z,5.40
2019-03-20T06:37:45.168Z,5.40
2019-03-20T06:38:52.284Z,5.50
2019-03-20T06:39:59.584Z,5.50
2019-03-20T06:41:07.089Z,5.50
2019-03-20T06:42:13.793Z,5.50
2019-03-20T06:43:20.572Z,5.60
2019-03-20T06:44:27.423Z,5.60
2019-03-20T06:45:34.309Z,5.70
2019-03-20T06:46:41.114Z,5.70
2019-03-20T06:47:48.227Z,5.70
2019-03-20T06:48:55.695Z,5.70
2019-03-20T06:50:02.474Z,5.80
2019-03-20T06:51:09.945Z,5.80
2019-03-20T06:52:17.440Z,5.80
2019-03-20T06:53:24.239Z,5.90
2019-03-20T06:54:31.729Z,5.90
2019-03-20T06:55:38.757Z,5.90
2019-03-20T06:56:45.849Z,6.00
2019-03-20T06:57:52.521Z,6.00
2019-03-20T06:59:46.607Z,6.00
2019-03-20T07:01:23.084Z,6.00
2019-03-20T07:02:29.564Z,6.10
2019-03-20T07:04:05.272Z,6.10
2019-03-20T07:06:16.921Z,6.10
2019-03-20T07:07:43.928Z,6.20
2019-03-20T07:08:56.661Z,6.10
2019-03-20T07:11:08.621Z,6.20
2019-03-20T07:12:15.771Z,6.20
2019-03-20T07:13:23.112Z,6.20
2019-03-20T07:14:30.245Z,6.20
2019-03-20T07:15:37.396Z,6.30
2019-03-20T07:16:44.153Z,6.30
2019-03-20T07:17:51.238Z,6.30
2019-03-20T07:18:58.443Z,6.30
2019-03-20T07:20:06.280Z,6.40
2019-03-20T07:21:13.416Z,6.40
2019-03-20T07:22:20.380Z,6.40
2019-03-20T07:23:27.153Z,6.50
2019-03-20T07:24:34.101Z,6.50
2019-03-20T07:25:41.375Z,6.50
2019-03-20T07:26:48.402Z,6.50
2019-03-20T07:27:55.527Z,6.60
2019-03-20T07:29:02.523Z,6.60
2019-03-20T07:30:11.273Z,6.60
2019-03-20T07:31:18.498Z,6.70
2019-03-20T07:32:25.567Z,6.70
2019-03-20T07:33:32.481Z,6.70
2019-03-20T07:34:39.279Z,6.70
2019-03-20T07:35:46.277Z,6.70
2019-03-20T07:36:53.135Z,6.70
2019-03-20T07:38:00.499Z,6.70
2019-03-20T07:39:10.425Z,6.70
2019-03-20T07:40:17.501Z,6.70
2019-03-20T07:41:24.242Z,6.80
2019-03-20T07:42:31.378Z,6.80
2019-03-20T07:43:38.772Z,6.80
2019-03-20T07:44:45.473Z,6.80
2019-03-20T07:45:52.382Z,6.80
2019-03-20T07:46:59.183Z,6.90
2019-03-20T07:48:05.912Z,6.90
2019-03-20T07:49:13.022Z,6.90
2019-03-20T07:50:20.069Z,7.00
2019-03-20T07:51:26.849Z,7.00
2019-03-20T07:52:33.609Z,7.00
2019-03-20T07:53:41.244Z,7.10
2019-03-20T07:54:48.000Z,7.10
2019-03-20T07:55:54.828Z,7.20
2019-03-20T07:57:01.642Z,7.10
2019-03-20T07:58:08.346Z,7.20
2019-03-20T07:59:15.102Z,7.20
2019-03-20T08:00:22.369Z,7.30
2019-03-20T08:01:29.153Z,7.30
2019-03-20T08:02:36.616Z,7.30
2019-03-20T08:03:43.341Z,7.30
2019-03-20T08:04:50.541Z,7.40
2019-03-20T08:05:57.603Z,7.40
2019-03-20T08:07:04.413Z,7.40
2019-03-20T08:08:11.371Z,7.40
2019-03-20T08:09:18.172Z,7.40
2019-03-20T08:10:24.941Z,7.40
2019-03-20T08:11:31.687Z,7.40
2019-03-20T08:12:38.446Z,7.40
2019-03-20T08:13:45.644Z,7.40
2019-03-20T08:14:52.482Z,7.50
2019-03-20T08:15:59.370Z,7.50
2019-03-20T08:17:06.670Z,7.50
2019-03-20T08:18:13.788Z,7.50
2019-03-20T08:19:20.512Z,7.50
2019-03-20T08:20:27.961Z,7.50
2019-03-20T08:21:35.287Z,7.50
2019-03-20T08:22:42.406Z,7.40
2019-03-20T08:23:49.032Z,7.50
2019-03-20T08:24:56.192Z,7.40
2019-03-20T08:26:03.439Z,7.50
2019-03-20T08:27:10.572Z,7.50
2019-03-20T08:28:17.692Z,7.50
2019-03-20T08:29:24.495Z,7.50
2019-03-20T08:30:31.615Z,7.50
2019-03-20T08:31:38.815Z,7.50
2019-03-20T08:32:45.994Z,7.50
2019-03-20T08:33:53.476Z,7.50
2019-03-20T08:35:00.469Z,7.60
2019-03-20T08:36:07.612Z,7.60
2019-03-20T08:37:14.553Z,7.70
2019-03-20T08:38:21.805Z,7.70
2019-03-20T08:39:29.359Z,7.80
2019-03-20T08:40:36.536Z,7.80
2019-03-20T08:41:43.260Z,7.80
2019-03-20T08:42:51.478Z,7.90
2019-03-20T08:43:59.479Z,7.80
2019-03-20T08:45:07.340Z,7.80
2019-03-20T08:46:14.466Z,7.80
2019-03-20T08:47:21.876Z,7.80
2019-03-20T08:48:28.807Z,7.90
2019-03-20T08:49:35.616Z,8.00
2019-03-20T08:50:43.416Z,8.00
2019-03-20T08:51:50.573Z,8.00
2019-03-20T08:52:57.732Z,8.10
2019-03-20T08:54:06.164Z,8.20
2019-03-20T08:55:13.982Z,8.20
2019-03-20T08:56:20.811Z,8.20
2019-03-20T08:57:27.714Z,8.20
2019-03-20T08:58:34.620Z,8.20
2019-03-20T08:59:41.372Z,8.40
2019-03-20T09:00:48.495Z,8.40
2019-03-20T09:01:55.636Z,8.50
2019-03-20T09:03:02.709Z,8.50
2019-03-20T09:04:09.472Z,8.50
2019-03-20T09:05:16.416Z,8.50
2019-03-20T09:06:23.166Z,8.50
2019-03-20T09:07:30.457Z,8.50
2019-03-20T09:08:37.191Z,8.60
2019-03-20T09:09:44.293Z,8.60
2019-03-20T09:10:51.070Z,8.60
2019-03-20T09:11:58.246Z,8.60
2019-03-20T09:13:05.150Z,8.60
2019-03-20T09:14:11.918Z,8.60
2019-03-20T09:15:18.750Z,8.70
2019-03-20T09:16:25.521Z,8.70
2019-03-20T09:17:32.666Z,8.80
2019-03-20T09:18:39.859Z,8.90
2019-03-20T09:19:46.932Z,8.90
2019-03-20T09:20:53.702Z,8.90
2019-03-20T09:22:00.525Z,9.00
2019-03-20T09:23:07.581Z,9.00
2019-03-20T09:24:14.511Z,9.00
2019-03-20T09:25:21.528Z,9.10
2019-03-20T09:26:28.296Z,9.10
2019-03-20T09:27:35.052Z,9.00
2019-03-20T09:28:42.133Z,9.00
2019-03-20T09:29:48.792Z,9.00
2019-03-20T09:30:55.699Z,9.00
2019-03-20T09:32:02.486Z,9.00
2019-03-20T09:33:09.290Z,9.00
2019-03-20T09:34:16.082Z,9.00
2019-03-20T09:35:23.022Z,9.00
2019-03-20T09:36:29.784Z,9.00
2019-03-20T09:37:36.828Z,8.90
2019-03-20T09:38:43.965Z,9.00
2019-03-20T09:39:51.158Z,9.00
2019-03-20T09:40:58.101Z,9.00
2019-03-20T09:42:05.175Z,9.00
2019-03-20T09:43:12.206Z,9.00
2019-03-20T09:44:18.975Z,9.00
2019-03-20T09:45:26.039Z,9.00
2019-03-20T09:46:32.982Z,9.00
2019-03-20T09:47:39.700Z,9.00
2019-03-20T09:48:46.474Z,9.00
2019-03-20T09:49:53.658Z,9.00
2019-03-20T09:51:00.613Z,9.10
2019-03-20T09:52:07.366Z,9.10
2019-03-20T09:53:14.772Z,9.10
2019-03-20T09:54:21.808Z,9.20
2019-03-20T09:55:47.862Z,9.20
2019-03-20T09:56:54.660Z,9.30
2019-03-20T09:58:11.104Z,9.30
2019-03-20T09:59:10.194Z,9.40
2019-03-20T10:00:20.356Z,9.40
2019-03-20T10:01:27.227Z,9.50
2019-03-20T10:02:34.541Z,9.50
2019-03-20T10:03:41.299Z,9.50
2019-03-20T10:04:48.417Z,9.50
2019-03-20T10:05:55.593Z,9.50
2019-03-20T10:07:02.426Z,9.60
2019-03-20T10:08:09.626Z,9.60
2019-03-20T10:09:16.617Z,9.70
2019-03-20T10:10:23.873Z,9.70
2019-03-20T10:11:31.091Z,9.70
2019-03-20T10:12:38.567Z,9.70
2019-03-20T10:13:45.378Z,9.70
2019-03-20T10:14:52.503Z,9.80
2019-03-20T10:15:59.717Z,9.80
2019-03-20T10:17:07.207Z,9.90
2019-03-20T10:18:14.657Z,9.90
2019-03-20T10:19:21.443Z,10.00
2019-03-20T10:20:28.378Z,10.10
2019-03-20T10:21:35.115Z,10.10
2019-03-20T10:22:41.886Z,10.00
2019-03-20T10:23:48.684Z,10.00
2019-03-20T10:24:55.783Z,10.00
2019-03-20T10:26:02.881Z,10.00
2019-03-20T10:27:09.563Z,10.00
2019-03-20T10:28:16.631Z,10.10
2019-03-20T10:29:24.480Z,10.00
2019-03-20T10:30:31.487Z,9.90
2019-03-20T10:31:38.573Z,9.90
2019-03-20T10:32:45.654Z,9.90
2019-03-20T10:33:52.878Z,9.90
2019-03-20T10:35:00.374Z,9.90
2019-03-20T10:36:07.542Z,10.00
2019-03-20T10:37:14.651Z,10.00
2019-03-20T10:38:21.433Z,10.00
2019-03-20T10:39:28.883Z,9.90
2019-03-20T10:40:35.713Z,9.90
2019-03-20T10:41:42.459Z,10.00
2019-03-20T10:42:49.298Z,10.00
2019-03-20T10:43:56.143Z,10.00
2019-03-20T10:45:03.247Z,10.00
2019-03-20T10:46:09.976Z,10.00
2019-03-20T10:47:17.049Z,10.00
2019-03-20T10:48:24.047Z,9.90
2019-03-20T10:49:31.148Z,10.00
2019-03-20T10:50:37.957Z,9.90
2019-03-20T10:51:47.160Z,10.00
2019-03-20T10:52:54.005Z,10.00
2019-03-20T10:54:01.866Z,9.90
2019-03-20T10:55:09.682Z,9.90
2019-03-20T10:56:18.753Z,9.90
2019-03-20T10:57:25.644Z,9.90
2019-03-20T10:58:32.587Z,9.90
2019-03-20T10:59:39.579Z,9.90
2019-03-20T11:00:46.739Z,10.00
2019-03-20T11:01:53.822Z,9.90
2019-03-20T11:03:00.860Z,9.90
2019-03-20T11:04:07.711Z,10.00
2019-03-20T11:05:15.167Z,9.90
2019-03-20T11:06:22.245Z,10.00
2019-03-20T11:07:29.465Z,10.00
2019-03-20T11:08:37.024Z,10.00
2019-03-20T11:09:44.149Z,9.90
2019-03-20T11:10:50.989Z,9.90
2019-03-20T11:11:57.755Z,9.90
2019-03-20T11:13:05.017Z,9.90
2019-03-20T11:14:12.479Z,9.90
2019-03-20T11:15:19.674Z,9.90
2019-03-20T11:16:27.173Z,9.80
2019-03-20T11:17:33.999Z,9.80
2019-03-20T11:18:41.110Z,9.90
2019-03-20T11:19:48.516Z,9.80
2019-03-20T11:20:56.137Z,9.80
2019-03-20T11:22:03.490Z,9.80
2019-03-20T11:23:11.023Z,9.80
2019-03-20T11:24:18.312Z,9.80
2019-03-20T11:25:26.292Z,9.70
2019-03-20T11:26:33.623Z,9.80
2019-03-20T11:27:40.773Z,9.80
2019-03-20T11:28:49.423Z,9.80
2019-03-20T11:29:57.366Z,9.80
2019-03-20T11:31:04.377Z,9.80
2019-03-20T11:32:14.179Z,9.80
2019-03-20T11:33:19.766Z,9.80
2019-03-20T11:34:28.205Z,9.80
2019-03-20T11:35:35.366Z,9.80
2019-03-20T11:36:42.681Z,9.80
2019-03-20T11:37:49.906Z,9.90
2019-03-20T11:38:56.988Z,9.90
2019-03-20T11:40:03.669Z,9.90
2019-03-20T11:41:10.374Z,9.90
2019-03-20T11:42:17.430Z,9.90
2019-03-20T11:43:24.139Z,9.90
2019-03-20T11:44:30.899Z,9.90
2019-03-20T11:45:37.574Z,9.90
2019-03-20T11:46:44.598Z,9.90
2019-03-20T11:47:51.974Z,10.00
2019-03-20T11:48:58.698Z,10.00
2019-03-20T11:50:08.447Z,10.00
2019-03-20T11:51:15.474Z,10.00
2019-03-20T11:52:22.143Z,10.00
2019-03-20T11:53:29.414Z,10.00
2019-03-20T11:54:36.083Z,10.00
2019-03-20T11:55:44.459Z,10.00
2019-03-20T11:56:51.144Z,9.90
2019-03-20T11:57:57.897Z,9.90
2019-03-20T11:59:04.707Z,9.90
2019-03-20T12:00:14.897Z,9.90
2019-03-20T12:01:22.526Z,9.90
2019-03-20T12:02:29.345Z,9.90
2019-03-20T12:03:35.994Z,9.90
2019-03-20T12:04:42.668Z,9.90
2019-03-20T12:05:49.391Z,10.00
2019-03-20T12:06:56.251Z,9.90
2019-03-20T12:08:03.105Z,9.90
2019-03-20T12:09:11.387Z,9.90
2019-03-20T12:10:20.861Z,10.00
2019-03-20T12:11:27.592Z,10.00
2019-03-20T12:12:34.261Z,10.00
2019-03-20T12:13:41.645Z,10.00
2019-03-20T12:14:48.351Z,10.00
2019-03-20T12:15:55.408Z,10.10
2019-03-20T12:17:02.125Z,10.00
2019-03-20T12:18:08.783Z,10.00
2019-03-20T12:19:15.971Z,10.10
2019-03-20T12:20:23.143Z,10.10
2019-03-20T12:21:30.185Z,10.00
2019-03-20T12:22:37.242Z,10.10
2019-03-20T12:23:44.111Z,10.00
2019-03-20T12:24:51.284Z,10.00
2019-03-20T12:25:58.544Z,10.10
2019-03-20T12:27:14.671Z,10.10
2019-03-20T12:28:13.740Z,10.10
2019-03-20T12:29:22.324Z,10.10
2019-03-20T12:30:30.751Z,10.10
2019-03-20T12:31:37.665Z,10.10
2019-03-20T12:32:45.471Z,10.00
2019-03-20T12:33:55.109Z,10.00
2019-03-20T12:35:02.381Z,10.00
2019-03-20T12:36:09.891Z,10.00
2019-03-20T12:37:17.072Z,10.00
2019-03-20T12:38:24.013Z,10.00
2019-03-20T12:39:31.102Z,10.00
2019-03-20T12:40:37.923Z,10.10
2019-03-20T12:41:44.996Z,10.10
2019-03-20T12:42:52.126Z,10.10
2019-03-20T12:43:59.293Z,10.10
2019-03-20T12:45:10.003Z,10.10
2019-03-20T12:46:17.193Z,10.10
2019-03-20T12:47:24.323Z,10.10
2019-03-20T12:48:31.445Z,10.20
2019-03-20T12:49:38.338Z,10.10
2019-03-20T12:50:45.515Z,10.10
2019-03-20T12:51:52.310Z,10.10
2019-03-20T12:53:01.595Z,10.20
2019-03-20T12:54:07.779Z,10.20
2019-03-20T12:55:15.219Z,10.20
2019-03-20T12:56:22.321Z,10.20
2019-03-20T12:57:29.358Z,10.20
2019-03-20T12:58:36.484Z,10.20
2019-03-20T12:59:43.576Z,10.20
2019-03-20T13:01:56.151Z,10.20
2019-03-20T13:03:02.989Z,10.30
2019-03-20T13:04:10.017Z,10.30
2019-03-20T13:05:17.142Z,10.20
2019-03-20T13:06:23.899Z,10.20
2019-03-20T13:07:30.905Z,10.20
2019-03-20T13:08:38.542Z,10.20
2019-03-20T13:09:45.242Z,10.20
2019-03-20T13:10:51.924Z,10.20
2019-03-20T13:11:58.667Z,10.20
2019-03-20T13:13:05.721Z,10.20
2019-03-20T13:14:12.532Z,10.30
2019-03-20T13:15:23.964Z,10.30
2019-03-20T13:16:30.779Z,10.30
2019-03-20T13:17:38.198Z,10.30
2019-03-20T13:18:45.019Z,10.40
2019-03-20T13:19:51.712Z,10.30
2019-03-20T13:20:58.463Z,10.30
2019-03-20T13:22:05.699Z,10.40
2019-03-20T13:23:15.279Z,10.30
2019-03-20T13:24:22.003Z,10.40
2019-03-20T13:25:29.551Z,10.40
2019-03-20T13:26:36.701Z,10.40
2019-03-20T13:27:43.402Z,10.40
2019-03-20T13:28:50.403Z,10.50
2019-03-20T13:29:57.299Z,10.50
2019-03-20T13:31:10.223Z,10.40
2019-03-20T13:32:17.282Z,10.40
2019-03-20T13:33:26.033Z,10.50
2019-03-20T13:34:32.481Z,10.50
2019-03-20T13:35:39.287Z,10.50
2019-03-20T13:36:46.489Z,10.50
2019-03-20T13:37:53.159Z,10.50
2019-03-20T13:38:59.933Z,10.50
2019-03-20T13:40:14.268Z,10.50
2019-03-20T13:41:15.670Z,10.40
2019-03-20T13:42:22.391Z,10.40
2019-03-20T13:43:29.092Z,10.50
2019-03-20T13:44:36.047Z,10.50
2019-03-20T13:45:43.179Z,10.50
2019-03-20T13:46:50.211Z,10.50
2019-03-20T13:47:57.263Z,10.50
2019-03-20T13:49:04.127Z,10.50
2019-03-20T13:50:12.852Z,10.60
2019-03-20T13:51:19.568Z,10.60
2019-03-20T13:52:26.292Z,10.60
2019-03-20T13:53:32.977Z,10.60
2019-03-20T13:54:40.067Z,10.60
2019-03-20T13:55:46.758Z,10.70
2019-03-20T13:56:53.768Z,10.60
2019-03-20T13:58:00.897Z,10.60
2019-03-20T13:59:07.864Z,10.70
2019-03-20T14:00:20.269Z,10.70
2019-03-20T14:01:27.347Z,10.70
2019-03-20T14:02:34.532Z,10.70
2019-03-20T14:03:41.241Z,10.70
2019-03-20T14:04:48.403Z,10.70
2019-03-20T14:05:55.536Z,10.70
2019-03-20T14:07:02.470Z,10.70
2019-03-20T14:08:09.527Z,10.70
2019-03-20T14:09:16.560Z,10.70
2019-03-20T14:10:25.315Z,10.70
2019-03-20T14:11:32.227Z,10.70
2019-03-20T14:12:38.984Z,10.70
2019-03-20T14:13:45.733Z,10.70
2019-03-20T14:14:53.023Z,10.80
2019-03-20T14:15:59.790Z,10.80
2019-03-20T14:17:06.705Z,10.80
2019-03-20T14:18:13.489Z,10.90
2019-03-20T14:19:20.231Z,10.90
2019-03-20T14:20:27.090Z,10.90
2019-03-20T14:21:34.531Z,10.90
2019-03-20T14:22:41.334Z,10.90
2019-03-20T14:23:48.072Z,10.90
2019-03-20T14:24:55.168Z,10.90
2019-03-20T14:26:01.924Z,10.90
2019-03-20T14:27:08.951Z,10.90
2019-03-20T14:28:15.589Z,10.90
2019-03-20T14:29:23.108Z,10.90
2019-03-20T14:30:30.125Z,10.90
2019-03-20T14:31:36.769Z,10.90
2019-03-20T14:32:43.797Z,10.90
2019-03-20T14:33:51.989Z,10.90
2019-03-20T14:34:58.985Z,10.90
2019-03-20T14:36:05.762Z,10.90
2019-03-20T14:37:12.717Z,10.90
2019-03-20T14:38:20.315Z,10.90
2019-03-20T14:39:27.047Z,10.90
2019-03-20T14:40:36.401Z,10.90
2019-03-20T14:41:43.086Z,10.90
2019-03-20T14:42:49.871Z,10.80
2019-03-20T14:43:56.995Z,10.80
2019-03-20T14:45:03.718Z,10.90
2019-03-20T14:46:10.468Z,10.80
2019-03-20T14:47:17.586Z,10.90
2019-03-20T14:48:24.272Z,10.80
2019-03-20T14:49:30.984Z,10.80
2019-03-20T14:50:38.167Z,10.80
2019-03-20T14:51:44.865Z,10.80
2019-03-20T14:52:51.623Z,10.90